sensor_id;sensor_type;location;lat;lon;timestamp;P1;durP1;ratioP1;P2;durP2;ratioP2
7587;SDS011;3835;48.850;8.938;2022-12-07T00:01:22;14.77;;;13.47;;
7587;SDS011;3835;48.850;8.938;2022-12-07T00:03:51;14.30;;;13.20;;
7587;SDS011;3835;48.850;8.938;2022-12-07T00:06:20;15.33;;;14.17;;
7587;SDS011;3835;48.850;8.938;2022-12-07T00:08:47;14.93;;;13.80;;
7587;SDS011;3835;48.850;8.938;2022-12-07T00:11:15;16.07;;;14.87;;
7587;SDS011;3835;48.850;8.938;2022-12-07T00:13:46;15.50;;;14.37;;
7587;SDS011;3835;48.850;8.938;2022-12-07T00:16:17;14.63;;;13.53;;
7587;SDS011;3835;48.850;8.938;2022-12-07T00:18:45;15.33;;;14.03;;
7587;SDS011;3835;48.850;8.938;2022-12-07T00:21:13;16.57;;;15.27;;
7587;SDS011;3835;48.850;8.938;2022-12-07T00:23:42;16.70;;;15.43;;
7587;SDS011;3835;48.850;8.938;2022-12-07T00:26:11;15.00;;;13.80;;
7587;SDS011;3835;48.850;8.938;2022-12-07T00:28:39;15.07;;;13.80;;
7587;SDS011;3835;48.850;8.938;2022-12-07T00:31:09;15.37;;;14.17;;
7587;SDS011;3835;48.850;8.938;2022-12-07T00:33:37;16.10;;;14.70;;
7587;SDS011;3835;48.850;8.938;2022-12-07T00:36:04;15.10;;;13.90;;
7587;SDS011;3835;48.850;8.938;2022-12-07T00:38:34;15.47;;;14.27;;
7587;SDS011;3835;48.850;8.938;2022-12-07T00:41:03;15.43;;;14.13;;
7587;SDS011;3835;48.850;8.938;2022-12-07T00:43:31;15.10;;;13.80;;
7587;SDS011;3835;48.850;8.938;2022-12-07T00:45:58;16.80;;;15.53;;
7587;SDS011;3835;48.850;8.938;2022-12-07T00:48:26;15.17;;;14.00;;
7587;SDS011;3835;48.850;8.938;2022-12-07T00:50:53;15.63;;;14.23;;
7587;SDS011;3835;48.850;8.938;2022-12-07T00:53:20;15.17;;;13.73;;
7587;SDS011;3835;48.850;8.938;2022-12-07T00:55:47;15.13;;;13.80;;
7587;SDS011;3835;48.850;8.938;2022-12-07T00:58:13;16.17;;;14.70;;
7587;SDS011;3835;48.850;8.938;2022-12-07T01:00:41;14.10;;;12.80;;
7587;SDS011;3835;48.850;8.938;2022-12-07T01:03:09;14.50;;;13.47;;
7587;SDS011;3835;48.850;8.938;2022-12-07T01:05:39;14.93;;;13.73;;
7587;SDS011;3835;48.850;8.938;2022-12-07T01:08:06;15.03;;;13.73;;
7587;SDS011;3835;48.850;8.938;2022-12-07T01:10:34;15.23;;;14.13;;
7587;SDS011;3835;48.850;8.938;2022-12-07T01:13:00;13.93;;;13.03;;
7587;SDS011;3835;48.850;8.938;2022-12-07T01:15:27;15.37;;;14.07;;
7587;SDS011;3835;48.850;8.938;2022-12-07T01:17:54;14.40;;;13.30;;
7587;SDS011;3835;48.850;8.938;2022-12-07T01:20:21;14.03;;;13.03;;
7587;SDS011;3835;48.850;8.938;2022-12-07T01:22:49;15.00;;;13.80;;
7587;SDS011;3835;48.850;8.938;2022-12-07T01:25:16;14.17;;;13.17;;
7587;SDS011;3835;48.850;8.938;2022-12-07T01:27:43;14.47;;;13.27;;
7587;SDS011;3835;48.850;8.938;2022-12-07T01:30:10;14.63;;;13.57;;
7587;SDS011;3835;48.850;8.938;2022-12-07T01:32:39;14.27;;;13.27;;
7587;SDS011;3835;48.850;8.938;2022-12-07T01:35:06;15.40;;;14.10;;
7587;SDS011;3835;48.850;8.938;2022-12-07T01:37:34;15.20;;;14.10;;
7587;SDS011;3835;48.850;8.938;2022-12-07T01:40:03;15.27;;;14.03;;
7587;SDS011;3835;48.850;8.938;2022-12-07T01:42:32;16.30;;;15.00;;
7587;SDS011;3835;48.850;8.938;2022-12-07T01:45:31;16.80;;;15.37;;
7587;SDS011;3835;48.850;8.938;2022-12-07T01:48:04;14.80;;;13.60;;
7587;SDS011;3835;48.850;8.938;2022-12-07T01:50:33;15.60;;;14.37;;
7587;SDS011;3835;48.850;8.938;2022-12-07T01:53:01;15.60;;;14.27;;
7587;SDS011;3835;48.850;8.938;2022-12-07T01:55:33;14.57;;;13.40;;
7587;SDS011;3835;48.850;8.938;2022-12-07T01:58:03;16.17;;;14.63;;
7587;SDS011;3835;48.850;8.938;2022-12-07T02:00:30;16.37;;;14.87;;
7587;SDS011;3835;48.850;8.938;2022-12-07T02:03:04;15.13;;;13.93;;
7587;SDS011;3835;48.850;8.938;2022-12-07T02:05:34;16.23;;;15.03;;
7587;SDS011;3835;48.850;8.938;2022-12-07T02:08:02;16.63;;;15.33;;
7587;SDS011;3835;48.850;8.938;2022-12-07T02:10:30;18.07;;;16.60;;
7587;SDS011;3835;48.850;8.938;2022-12-07T02:13:00;17.07;;;15.63;;
7587;SDS011;3835;48.850;8.938;2022-12-07T02:15:32;16.70;;;15.40;;
7587;SDS011;3835;48.850;8.938;2022-12-07T02:18:09;15.53;;;14.27;;
7587;SDS011;3835;48.850;8.938;2022-12-07T02:20:42;17.23;;;15.87;;
7587;SDS011;3835;48.850;8.938;2022-12-07T02:23:23;15.83;;;14.43;;
7587;SDS011;3835;48.850;8.938;2022-12-07T02:26:12;16.27;;;14.87;;
7587;SDS011;3835;48.850;8.938;2022-12-07T02:29:14;16.17;;;14.87;;
7587;SDS011;3835;48.850;8.938;2022-12-07T02:31:50;15.90;;;14.60;;
7587;SDS011;3835;48.850;8.938;2022-12-07T02:34:25;15.70;;;14.30;;
7587;SDS011;3835;48.850;8.938;2022-12-07T02:36:57;15.20;;;14.00;;
7587;SDS011;3835;48.850;8.938;2022-12-07T02:39:28;15.73;;;14.33;;
7587;SDS011;3835;48.850;8.938;2022-12-07T02:42:05;16.50;;;14.87;;
7587;SDS011;3835;48.850;8.938;2022-12-07T02:44:39;18.20;;;16.60;;
7587;SDS011;3835;48.850;8.938;2022-12-07T02:47:07;15.37;;;14.17;;
7587;SDS011;3835;48.850;8.938;2022-12-07T02:49:38;15.53;;;13.93;;
7587;SDS011;3835;48.850;8.938;2022-12-07T02:52:05;15.73;;;14.13;;
7587;SDS011;3835;48.850;8.938;2022-12-07T02:54:32;17.53;;;15.70;;
7587;SDS011;3835;48.850;8.938;2022-12-07T02:57:00;16.93;;;15.43;;
7587;SDS011;3835;48.850;8.938;2022-12-07T02:59:34;15.97;;;14.40;;
7587;SDS011;3835;48.850;8.938;2022-12-07T03:02:15;16.60;;;15.07;;
7587;SDS011;3835;48.850;8.938;2022-12-07T03:04:50;15.07;;;13.77;;
7587;SDS011;3835;48.850;8.938;2022-12-07T03:07:28;15.23;;;13.83;;
7587;SDS011;3835;48.850;8.938;2022-12-07T03:10:00;16.80;;;15.20;;
7587;SDS011;3835;48.850;8.938;2022-12-07T03:12:35;16.67;;;15.03;;
7587;SDS011;3835;48.850;8.938;2022-12-07T03:15:12;15.20;;;13.73;;
7587;SDS011;3835;48.850;8.938;2022-12-07T03:17:42;14.60;;;13.30;;
7587;SDS011;3835;48.850;8.938;2022-12-07T03:20:14;17.00;;;15.53;;
7587;SDS011;3835;48.850;8.938;2022-12-07T03:22:45;15.63;;;14.33;;
7587;SDS011;3835;48.850;8.938;2022-12-07T03:25:13;15.93;;;14.57;;
7587;SDS011;3835;48.850;8.938;2022-12-07T03:27:44;16.63;;;15.40;;
7587;SDS011;3835;48.850;8.938;2022-12-07T03:30:19;16.43;;;15.13;;
7587;SDS011;3835;48.850;8.938;2022-12-07T03:32:48;15.53;;;14.23;;
7587;SDS011;3835;48.850;8.938;2022-12-07T03:35:20;15.07;;;13.57;;
7587;SDS011;3835;48.850;8.938;2022-12-07T03:37:52;15.80;;;14.33;;
7587;SDS011;3835;48.850;8.938;2022-12-07T03:40:24;15.63;;;14.33;;
7587;SDS011;3835;48.850;8.938;2022-12-07T03:42:56;18.43;;;14.73;;
7587;SDS011;3835;48.850;8.938;2022-12-07T03:45:29;19.33;;;16.20;;
7587;SDS011;3835;48.850;8.938;2022-12-07T03:48:03;21.57;;;18.07;;
7587;SDS011;3835;48.850;8.938;2022-12-07T03:50:36;21.93;;;16.67;;
7587;SDS011;3835;48.850;8.938;2022-12-07T03:53:08;36.77;;;21.10;;
7587;SDS011;3835;48.850;8.938;2022-12-07T03:55:40;24.90;;;19.17;;
7587;SDS011;3835;48.850;8.938;2022-12-07T03:58:10;37.70;;;22.73;;
7587;SDS011;3835;48.850;8.938;2022-12-07T04:00:41;45.73;;;25.53;;
7587;SDS011;3835;48.850;8.938;2022-12-07T04:03:08;26.50;;;18.37;;
7587;SDS011;3835;48.850;8.938;2022-12-07T04:05:36;29.83;;;20.13;;
7587;SDS011;3835;48.850;8.938;2022-12-07T04:08:04;19.23;;;17.20;;
7587;SDS011;3835;48.850;8.938;2022-12-07T04:10:31;16.67;;;15.23;;
7587;SDS011;3835;48.850;8.938;2022-12-07T04:12:57;16.97;;;15.17;;
7587;SDS011;3835;48.850;8.938;2022-12-07T04:15:24;16.70;;;15.30;;
7587;SDS011;3835;48.850;8.938;2022-12-07T04:17:52;15.83;;;14.53;;
7587;SDS011;3835;48.850;8.938;2022-12-07T04:20:20;13.97;;;12.77;;
7587;SDS011;3835;48.850;8.938;2022-12-07T04:22:47;14.37;;;13.37;;
7587;SDS011;3835;48.850;8.938;2022-12-07T04:25:14;13.73;;;12.63;;
7587;SDS011;3835;48.850;8.938;2022-12-07T04:27:40;13.73;;;12.80;;
7587;SDS011;3835;48.850;8.938;2022-12-07T04:30:07;14.63;;;13.73;;
7587;SDS011;3835;48.850;8.938;2022-12-07T04:32:34;13.90;;;12.93;;
7587;SDS011;3835;48.850;8.938;2022-12-07T04:35:03;14.60;;;13.60;;
7587;SDS011;3835;48.850;8.938;2022-12-07T04:37:30;14.30;;;13.10;;
7587;SDS011;3835;48.850;8.938;2022-12-07T04:39:57;15.43;;;14.23;;
7587;SDS011;3835;48.850;8.938;2022-12-07T04:42:24;15.43;;;14.33;;
7587;SDS011;3835;48.850;8.938;2022-12-07T04:44:51;15.80;;;14.63;;
7587;SDS011;3835;48.850;8.938;2022-12-07T04:47:17;16.20;;;14.90;;
7587;SDS011;3835;48.850;8.938;2022-12-07T04:49:44;16.80;;;15.20;;
7587;SDS011;3835;48.850;8.938;2022-12-07T04:52:12;14.97;;;14.00;;
7587;SDS011;3835;48.850;8.938;2022-12-07T04:54:39;14.90;;;13.47;;
7587;SDS011;3835;48.850;8.938;2022-12-07T04:57:06;14.23;;;13.27;;
7587;SDS011;3835;48.850;8.938;2022-12-07T04:59:32;14.47;;;13.47;;
7587;SDS011;3835;48.850;8.938;2022-12-07T05:01:59;14.87;;;13.77;;
7587;SDS011;3835;48.850;8.938;2022-12-07T05:04:26;14.43;;;13.43;;
7587;SDS011;3835;48.850;8.938;2022-12-07T05:06:53;13.80;;;12.90;;
7587;SDS011;3835;48.850;8.938;2022-12-07T05:09:21;15.87;;;14.57;;
7587;SDS011;3835;48.850;8.938;2022-12-07T05:11:47;14.20;;;13.23;;
7587;SDS011;3835;48.850;8.938;2022-12-07T05:14:15;14.43;;;13.47;;
7587;SDS011;3835;48.850;8.938;2022-12-07T05:16:44;14.57;;;13.57;;
7587;SDS011;3835;48.850;8.938;2022-12-07T05:19:12;13.23;;;12.40;;
7587;SDS011;3835;48.850;8.938;2022-12-07T05:21:39;14.83;;;13.93;;
7587;SDS011;3835;48.850;8.938;2022-12-07T05:24:06;14.23;;;13.23;;
7587;SDS011;3835;48.850;8.938;2022-12-07T05:26:37;14.73;;;13.77;;
7587;SDS011;3835;48.850;8.938;2022-12-07T05:29:03;13.63;;;12.63;;
7587;SDS011;3835;48.850;8.938;2022-12-07T05:31:30;13.77;;;12.77;;
7587;SDS011;3835;48.850;8.938;2022-12-07T05:33:57;14.23;;;13.03;;
7587;SDS011;3835;48.850;8.938;2022-12-07T05:36:24;14.37;;;13.17;;
7587;SDS011;3835;48.850;8.938;2022-12-07T05:38:53;14.63;;;13.53;;
7587;SDS011;3835;48.850;8.938;2022-12-07T05:41:20;19.63;;;17.63;;
7587;SDS011;3835;48.850;8.938;2022-12-07T05:44:05;14.57;;;13.37;;
7587;SDS011;3835;48.850;8.938;2022-12-07T05:46:32;14.00;;;13.00;;
7587;SDS011;3835;48.850;8.938;2022-12-07T05:49:00;13.10;;;12.10;;
7587;SDS011;3835;48.850;8.938;2022-12-07T05:51:27;13.13;;;12.27;;
7587;SDS011;3835;48.850;8.938;2022-12-07T05:53:53;14.97;;;14.07;;
7587;SDS011;3835;48.850;8.938;2022-12-07T05:56:20;13.10;;;12.07;;
7587;SDS011;3835;48.850;8.938;2022-12-07T05:58:47;14.53;;;13.43;;
7587;SDS011;3835;48.850;8.938;2022-12-07T06:01:33;18.20;;;15.17;;
7587;SDS011;3835;48.850;8.938;2022-12-07T06:04:00;16.77;;;15.10;;
7587;SDS011;3835;48.850;8.938;2022-12-07T06:06:27;16.83;;;14.93;;
7587;SDS011;3835;48.850;8.938;2022-12-07T06:08:53;15.13;;;13.83;;
7587;SDS011;3835;48.850;8.938;2022-12-07T06:11:20;24.17;;;16.67;;
7587;SDS011;3835;48.850;8.938;2022-12-07T06:14:04;28.63;;;18.47;;
7587;SDS011;3835;48.850;8.938;2022-12-07T06:16:31;23.53;;;19.67;;
7587;SDS011;3835;48.850;8.938;2022-12-07T06:18:59;16.60;;;14.13;;
7587;SDS011;3835;48.850;8.938;2022-12-07T06:21:26;17.40;;;15.57;;
7587;SDS011;3835;48.850;8.938;2022-12-07T06:23:53;20.70;;;18.07;;
7587;SDS011;3835;48.850;8.938;2022-12-07T06:26:20;19.73;;;16.13;;
7587;SDS011;3835;48.850;8.938;2022-12-07T06:28:47;18.13;;;16.23;;
7587;SDS011;3835;48.850;8.938;2022-12-07T06:31:13;23.67;;;17.50;;
7587;SDS011;3835;48.850;8.938;2022-12-07T06:33:40;16.77;;;15.07;;
7587;SDS011;3835;48.850;8.938;2022-12-07T06:36:09;17.63;;;15.83;;
7587;SDS011;3835;48.850;8.938;2022-12-07T06:38:36;16.17;;;14.67;;
7587;SDS011;3835;48.850;8.938;2022-12-07T06:41:03;15.53;;;14.07;;
7587;SDS011;3835;48.850;8.938;2022-12-07T06:43:31;37.93;;;24.33;;
7587;SDS011;3835;48.850;8.938;2022-12-07T06:45:58;18.23;;;16.60;;
7587;SDS011;3835;48.850;8.938;2022-12-07T06:48:25;15.67;;;14.53;;
7587;SDS011;3835;48.850;8.938;2022-12-07T06:50:51;15.53;;;14.23;;
7587;SDS011;3835;48.850;8.938;2022-12-07T06:53:20;25.57;;;20.40;;
7587;SDS011;3835;48.850;8.938;2022-12-07T06:55:46;24.63;;;20.33;;
7587;SDS011;3835;48.850;8.938;2022-12-07T06:58:13;21.93;;;19.57;;
7587;SDS011;3835;48.850;8.938;2022-12-07T07:00:40;41.60;;;27.83;;
7587;SDS011;3835;48.850;8.938;2022-12-07T07:03:07;41.00;;;25.53;;
7587;SDS011;3835;48.850;8.938;2022-12-07T07:05:33;19.60;;;17.60;;
7587;SDS011;3835;48.850;8.938;2022-12-07T07:08:00;29.33;;;17.90;;
7587;SDS011;3835;48.850;8.938;2022-12-07T07:10:28;18.00;;;16.60;;
7587;SDS011;3835;48.850;8.938;2022-12-07T07:12:55;16.30;;;15.10;;
7587;SDS011;3835;48.850;8.938;2022-12-07T07:15:22;15.10;;;14.13;;
7587;SDS011;3835;48.850;8.938;2022-12-07T07:17:49;15.53;;;14.03;;
7587;SDS011;3835;48.850;8.938;2022-12-07T07:20:16;15.97;;;14.77;;
7587;SDS011;3835;48.850;8.938;2022-12-07T07:22:43;17.27;;;16.07;;
7587;SDS011;3835;48.850;8.938;2022-12-07T07:25:09;16.93;;;15.83;;
7587;SDS011;3835;48.850;8.938;2022-12-07T07:27:38;16.47;;;15.23;;
7587;SDS011;3835;48.850;8.938;2022-12-07T07:30:05;17.17;;;15.87;;
7587;SDS011;3835;48.850;8.938;2022-12-07T07:32:32;16.90;;;15.73;;
7587;SDS011;3835;48.850;8.938;2022-12-07T07:34:59;16.70;;;15.50;;
7587;SDS011;3835;48.850;8.938;2022-12-07T07:37:26;17.60;;;16.50;;
7587;SDS011;3835;48.850;8.938;2022-12-07T07:39:53;17.37;;;15.90;;
7587;SDS011;3835;48.850;8.938;2022-12-07T07:42:20;17.60;;;16.50;;
7587;SDS011;3835;48.850;8.938;2022-12-07T07:44:48;16.57;;;15.27;;
7587;SDS011;3835;48.850;8.938;2022-12-07T07:47:15;15.73;;;14.63;;
7587;SDS011;3835;48.850;8.938;2022-12-07T07:49:41;15.93;;;14.73;;
7587;SDS011;3835;48.850;8.938;2022-12-07T07:52:09;15.73;;;14.83;;
7587;SDS011;3835;48.850;8.938;2022-12-07T07:54:36;15.93;;;15.03;;
7587;SDS011;3835;48.850;8.938;2022-12-07T07:57:03;17.00;;;16.00;;
7587;SDS011;3835;48.850;8.938;2022-12-07T07:59:29;14.10;;;13.10;;
7587;SDS011;3835;48.850;8.938;2022-12-07T08:01:57;14.20;;;13.37;;
7587;SDS011;3835;48.850;8.938;2022-12-07T08:04:24;13.93;;;13.07;;
7587;SDS011;3835;48.850;8.938;2022-12-07T08:06:51;13.57;;;12.73;;
7587;SDS011;3835;48.850;8.938;2022-12-07T08:09:18;13.27;;;12.37;;
7587;SDS011;3835;48.850;8.938;2022-12-07T08:11:45;13.17;;;12.37;;
7587;SDS011;3835;48.850;8.938;2022-12-07T08:14:11;11.90;;;11.10;;
7587;SDS011;3835;48.850;8.938;2022-12-07T08:16:38;13.30;;;12.23;;
7587;SDS011;3835;48.850;8.938;2022-12-07T08:19:06;18.60;;;12.43;;
7587;SDS011;3835;48.850;8.938;2022-12-07T08:21:33;13.67;;;12.67;;
7587;SDS011;3835;48.850;8.938;2022-12-07T08:24:00;12.17;;;11.47;;
7587;SDS011;3835;48.850;8.938;2022-12-07T08:26:27;13.73;;;12.83;;
7587;SDS011;3835;48.850;8.938;2022-12-07T08:28:53;12.57;;;11.57;;
7587;SDS011;3835;48.850;8.938;2022-12-07T08:31:20;12.60;;;11.53;;
7587;SDS011;3835;48.850;8.938;2022-12-07T08:33:47;13.97;;;12.57;;
7587;SDS011;3835;48.850;8.938;2022-12-07T08:36:16;13.00;;;12.20;;
7587;SDS011;3835;48.850;8.938;2022-12-07T08:38:43;12.97;;;12.17;;
7587;SDS011;3835;48.850;8.938;2022-12-07T08:41:10;12.37;;;11.53;;
7587;SDS011;3835;48.850;8.938;2022-12-07T08:43:37;12.97;;;12.20;;
7587;SDS011;3835;48.850;8.938;2022-12-07T08:46:06;13.40;;;12.50;;
7587;SDS011;3835;48.850;8.938;2022-12-07T08:48:36;13.27;;;12.27;;
7587;SDS011;3835;48.850;8.938;2022-12-07T08:51:06;13.07;;;12.27;;
7587;SDS011;3835;48.850;8.938;2022-12-07T08:53:35;12.90;;;12.10;;
7587;SDS011;3835;48.850;8.938;2022-12-07T08:56:04;12.80;;;11.90;;
7587;SDS011;3835;48.850;8.938;2022-12-07T08:58:33;13.63;;;12.73;;
7587;SDS011;3835;48.850;8.938;2022-12-07T09:01:02;12.77;;;11.87;;
7587;SDS011;3835;48.850;8.938;2022-12-07T09:03:29;12.87;;;12.17;;
7587;SDS011;3835;48.850;8.938;2022-12-07T09:05:56;12.90;;;12.10;;
7587;SDS011;3835;48.850;8.938;2022-12-07T09:08:26;12.70;;;11.90;;
7587;SDS011;3835;48.850;8.938;2022-12-07T09:10:57;12.77;;;11.77;;
7587;SDS011;3835;48.850;8.938;2022-12-07T09:13:24;13.53;;;12.57;;
7587;SDS011;3835;48.850;8.938;2022-12-07T09:15:50;12.20;;;11.40;;
7587;SDS011;3835;48.850;8.938;2022-12-07T09:18:17;11.87;;;11.23;;
7587;SDS011;3835;48.850;8.938;2022-12-07T09:20:44;12.87;;;12.17;;
7587;SDS011;3835;48.850;8.938;2022-12-07T09:23:11;13.30;;;12.40;;
7587;SDS011;3835;48.850;8.938;2022-12-07T09:25:40;14.57;;;13.47;;
7587;SDS011;3835;48.850;8.938;2022-12-07T09:28:09;13.53;;;12.77;;
7587;SDS011;3835;48.850;8.938;2022-12-07T09:30:36;12.80;;;12.03;;
7587;SDS011;3835;48.850;8.938;2022-12-07T09:33:02;12.37;;;11.77;;
7587;SDS011;3835;48.850;8.938;2022-12-07T09:35:29;12.40;;;11.60;;
7587;SDS011;3835;48.850;8.938;2022-12-07T09:37:56;12.70;;;12.00;;
7587;SDS011;3835;48.850;8.938;2022-12-07T09:40:23;12.47;;;11.77;;
7587;SDS011;3835;48.850;8.938;2022-12-07T09:42:51;13.90;;;13.13;;
7587;SDS011;3835;48.850;8.938;2022-12-07T09:45:22;12.27;;;11.57;;
7587;SDS011;3835;48.850;8.938;2022-12-07T09:47:50;12.70;;;12.00;;
7587;SDS011;3835;48.850;8.938;2022-12-07T09:50:19;12.57;;;11.97;;
7587;SDS011;3835;48.850;8.938;2022-12-07T09:52:49;12.10;;;11.43;;
7587;SDS011;3835;48.850;8.938;2022-12-07T09:55:18;11.87;;;11.10;;
7587;SDS011;3835;48.850;8.938;2022-12-07T09:57:48;12.30;;;11.10;;
7587;SDS011;3835;48.850;8.938;2022-12-07T10:00:17;11.93;;;11.37;;
7587;SDS011;3835;48.850;8.938;2022-12-07T10:02:48;12.20;;;11.60;;
7587;SDS011;3835;48.850;8.938;2022-12-07T10:05:19;11.73;;;11.13;;
7587;SDS011;3835;48.850;8.938;2022-12-07T10:07:50;12.63;;;11.90;;
7587;SDS011;3835;48.850;8.938;2022-12-07T10:10:18;12.30;;;11.60;;
7587;SDS011;3835;48.850;8.938;2022-12-07T10:12:53;12.47;;;11.70;;
7587;SDS011;3835;48.850;8.938;2022-12-07T10:15:21;11.20;;;10.70;;
7587;SDS011;3835;48.850;8.938;2022-12-07T10:17:51;12.00;;;11.37;;
7587;SDS011;3835;48.850;8.938;2022-12-07T10:20:20;11.07;;;10.57;;
7587;SDS011;3835;48.850;8.938;2022-12-07T10:22:59;10.70;;;10.17;;
7587;SDS011;3835;48.850;8.938;2022-12-07T10:25:29;10.97;;;10.47;;
7587;SDS011;3835;48.850;8.938;2022-12-07T10:28:00;11.37;;;10.67;;
7587;SDS011;3835;48.850;8.938;2022-12-07T10:30:29;11.23;;;10.70;;
7587;SDS011;3835;48.850;8.938;2022-12-07T10:32:59;11.07;;;10.57;;
7587;SDS011;3835;48.850;8.938;2022-12-07T10:35:27;11.63;;;10.93;;
7587;SDS011;3835;48.850;8.938;2022-12-07T10:37:57;12.63;;;11.97;;
7587;SDS011;3835;48.850;8.938;2022-12-07T10:40:27;10.80;;;10.33;;
7587;SDS011;3835;48.850;8.938;2022-12-07T10:43:17;13.50;;;12.90;;
7587;SDS011;3835;48.850;8.938;2022-12-07T10:45:57;12.50;;;11.80;;
7587;SDS011;3835;48.850;8.938;2022-12-07T10:48:49;12.90;;;12.00;;
7587;SDS011;3835;48.850;8.938;2022-12-07T10:51:27;13.97;;;13.17;;
7587;SDS011;3835;48.850;8.938;2022-12-07T10:54:01;12.57;;;11.77;;
7587;SDS011;3835;48.850;8.938;2022-12-07T10:56:49;12.73;;;12.03;;
7587;SDS011;3835;48.850;8.938;2022-12-07T10:59:46;12.93;;;12.20;;
7587;SDS011;3835;48.850;8.938;2022-12-07T11:02:26;14.87;;;13.97;;
7587;SDS011;3835;48.850;8.938;2022-12-07T11:05:09;12.40;;;11.50;;
7587;SDS011;3835;48.850;8.938;2022-12-07T11:07:46;11.77;;;11.10;;
7587;SDS011;3835;48.850;8.938;2022-12-07T11:10:21;12.53;;;11.63;;
7587;SDS011;3835;48.850;8.938;2022-12-07T11:15:49;13.57;;;12.77;;
7587;SDS011;3835;48.850;8.938;2022-12-07T11:18:26;14.47;;;13.67;;
7587;SDS011;3835;48.850;8.938;2022-12-07T11:21:03;15.43;;;14.23;;
7587;SDS011;3835;48.850;8.938;2022-12-07T11:23:38;14.23;;;13.33;;
7587;SDS011;3835;48.850;8.938;2022-12-07T11:26:13;16.33;;;14.90;;
7587;SDS011;3835;48.850;8.938;2022-12-07T11:28:56;13.93;;;12.97;;
7587;SDS011;3835;48.850;8.938;2022-12-07T11:31:36;14.20;;;13.10;;
7587;SDS011;3835;48.850;8.938;2022-12-07T11:34:18;16.30;;;14.47;;
7587;SDS011;3835;48.850;8.938;2022-12-07T11:36:54;15.90;;;14.80;;
7587;SDS011;3835;48.850;8.938;2022-12-07T11:39:26;13.50;;;12.37;;
7587;SDS011;3835;48.850;8.938;2022-12-07T11:42:00;13.90;;;12.70;;
7587;SDS011;3835;48.850;8.938;2022-12-07T11:44:34;20.83;;;16.53;;
7587;SDS011;3835;48.850;8.938;2022-12-07T11:47:07;14.53;;;13.20;;
7587;SDS011;3835;48.850;8.938;2022-12-07T11:49:40;15.43;;;12.90;;
7587;SDS011;3835;48.850;8.938;2022-12-07T11:52:14;14.43;;;13.23;;
7587;SDS011;3835;48.850;8.938;2022-12-07T11:54:49;13.10;;;12.10;;
7587;SDS011;3835;48.850;8.938;2022-12-07T11:57:20;13.17;;;12.27;;
7587;SDS011;3835;48.850;8.938;2022-12-07T11:59:58;14.17;;;13.10;;
7587;SDS011;3835;48.850;8.938;2022-12-07T12:02:32;14.97;;;13.97;;
7587;SDS011;3835;48.850;8.938;2022-12-07T12:05:07;17.87;;;16.27;;
7587;SDS011;3835;48.850;8.938;2022-12-07T12:07:48;15.73;;;14.33;;
7587;SDS011;3835;48.850;8.938;2022-12-07T12:10:24;21.53;;;19.40;;
7587;SDS011;3835;48.850;8.938;2022-12-07T12:13:20;16.60;;;15.10;;
7587;SDS011;3835;48.850;8.938;2022-12-07T12:16:12;16.53;;;15.00;;
7587;SDS011;3835;48.850;8.938;2022-12-07T12:19:04;16.77;;;15.37;;
7587;SDS011;3835;48.850;8.938;2022-12-07T12:21:46;16.80;;;15.50;;
7587;SDS011;3835;48.850;8.938;2022-12-07T12:24:22;16.73;;;15.27;;
7587;SDS011;3835;48.850;8.938;2022-12-07T12:26:53;14.53;;;13.53;;
7587;SDS011;3835;48.850;8.938;2022-12-07T12:29:31;13.73;;;12.90;;
7587;SDS011;3835;48.850;8.938;2022-12-07T12:32:05;14.73;;;13.73;;
7587;SDS011;3835;48.850;8.938;2022-12-07T12:34:39;21.77;;;19.97;;
7587;SDS011;3835;48.850;8.938;2022-12-07T12:37:39;18.23;;;16.30;;
7587;SDS011;3835;48.850;8.938;2022-12-07T12:55:15;14.03;;;12.80;;
7587;SDS011;3835;48.850;8.938;2022-12-07T12:57:47;13.83;;;12.83;;
7587;SDS011;3835;48.850;8.938;2022-12-07T13:00:34;15.63;;;14.13;;
7587;SDS011;3835;48.850;8.938;2022-12-07T13:03:01;14.77;;;13.60;;
7587;SDS011;3835;48.850;8.938;2022-12-07T13:05:28;15.97;;;14.63;;
7587;SDS011;3835;48.850;8.938;2022-12-07T13:07:57;17.30;;;13.83;;
7587;SDS011;3835;48.850;8.938;2022-12-07T13:10:31;14.73;;;13.53;;
7587;SDS011;3835;48.850;8.938;2022-12-07T13:22:33;16.63;;;15.03;;
7587;SDS011;3835;48.850;8.938;2022-12-07T13:25:09;15.47;;;14.07;;
7587;SDS011;3835;48.850;8.938;2022-12-07T13:27:40;14.93;;;13.53;;
7587;SDS011;3835;48.850;8.938;2022-12-07T13:30:14;15.17;;;13.27;;
7587;SDS011;3835;48.850;8.938;2022-12-07T13:32:42;13.83;;;12.70;;
7587;SDS011;3835;48.850;8.938;2022-12-07T13:35:30;14.47;;;13.23;;
7587;SDS011;3835;48.850;8.938;2022-12-07T13:37:59;16.23;;;14.53;;
7587;SDS011;3835;48.850;8.938;2022-12-07T13:40:27;13.93;;;12.83;;
7587;SDS011;3835;48.850;8.938;2022-12-07T13:42:58;17.13;;;12.67;;
7587;SDS011;3835;48.850;8.938;2022-12-07T13:45:27;15.20;;;13.90;;
7587;SDS011;3835;48.850;8.938;2022-12-07T13:48:14;16.60;;;14.70;;
7587;SDS011;3835;48.850;8.938;2022-12-07T13:50:43;16.10;;;14.60;;
7587;SDS011;3835;48.850;8.938;2022-12-07T13:53:18;15.50;;;14.23;;
7587;SDS011;3835;48.850;8.938;2022-12-07T13:55:45;15.00;;;13.70;;
7587;SDS011;3835;48.850;8.938;2022-12-07T13:58:12;21.03;;;15.53;;
7587;SDS011;3835;48.850;8.938;2022-12-07T14:00:41;14.80;;;13.83;;
7587;SDS011;3835;48.850;8.938;2022-12-07T14:03:24;15.50;;;14.30;;
7587;SDS011;3835;48.850;8.938;2022-12-07T14:06:04;14.80;;;13.70;;
7587;SDS011;3835;48.850;8.938;2022-12-07T14:08:33;15.10;;;13.40;;
7587;SDS011;3835;48.850;8.938;2022-12-07T14:11:00;15.10;;;13.70;;
7587;SDS011;3835;48.850;8.938;2022-12-07T14:13:29;14.77;;;13.70;;
7587;SDS011;3835;48.850;8.938;2022-12-07T14:16:00;15.23;;;14.13;;
7587;SDS011;3835;48.850;8.938;2022-12-07T14:18:28;13.47;;;12.47;;
7587;SDS011;3835;48.850;8.938;2022-12-07T14:21:03;13.50;;;12.50;;
7587;SDS011;3835;48.850;8.938;2022-12-07T14:23:30;12.57;;;11.77;;
7587;SDS011;3835;48.850;8.938;2022-12-07T14:26:05;12.63;;;11.83;;
7587;SDS011;3835;48.850;8.938;2022-12-07T14:28:33;13.83;;;13.03;;
7587;SDS011;3835;48.850;8.938;2022-12-07T14:31:03;14.00;;;12.80;;
7587;SDS011;3835;48.850;8.938;2022-12-07T14:33:37;13.87;;;12.57;;
7587;SDS011;3835;48.850;8.938;2022-12-07T14:36:05;19.20;;;17.20;;
7587;SDS011;3835;48.850;8.938;2022-12-07T14:38:32;27.53;;;22.87;;
7587;SDS011;3835;48.850;8.938;2022-12-07T14:40:58;23.23;;;19.20;;
7587;SDS011;3835;48.850;8.938;2022-12-07T14:43:45;18.93;;;16.93;;
7587;SDS011;3835;48.850;8.938;2022-12-07T14:46:13;15.10;;;13.80;;
7587;SDS011;3835;48.850;8.938;2022-12-07T14:48:40;15.47;;;14.17;;
7587;SDS011;3835;48.850;8.938;2022-12-07T14:51:07;17.60;;;15.80;;
7587;SDS011;3835;48.850;8.938;2022-12-07T14:53:39;16.37;;;14.77;;
7587;SDS011;3835;48.850;8.938;2022-12-07T14:56:08;16.80;;;14.53;;
7587;SDS011;3835;48.850;8.938;2022-12-07T14:58:35;14.33;;;13.10;;
7587;SDS011;3835;48.850;8.938;2022-12-07T15:01:02;16.20;;;14.97;;
7587;SDS011;3835;48.850;8.938;2022-12-07T15:03:31;15.43;;;14.13;;
7587;SDS011;3835;48.850;8.938;2022-12-07T15:05:59;16.83;;;15.13;;
7587;SDS011;3835;48.850;8.938;2022-12-07T15:08:26;15.53;;;14.07;;
7587;SDS011;3835;48.850;8.938;2022-12-07T15:10:53;17.23;;;15.53;;
7587;SDS011;3835;48.850;8.938;2022-12-07T15:13:20;25.60;;;17.83;;
7587;SDS011;3835;48.850;8.938;2022-12-07T15:16:04;23.67;;;21.27;;
7587;SDS011;3835;48.850;8.938;2022-12-07T15:18:35;21.03;;;19.17;;
7587;SDS011;3835;48.850;8.938;2022-12-07T15:21:02;17.23;;;15.57;;
7587;SDS011;3835;48.850;8.938;2022-12-07T15:23:29;16.73;;;15.53;;
7587;SDS011;3835;48.850;8.938;2022-12-07T15:25:56;17.43;;;16.10;;
7587;SDS011;3835;48.850;8.938;2022-12-07T15:28:23;18.90;;;17.17;;
7587;SDS011;3835;48.850;8.938;2022-12-07T15:30:49;18.53;;;16.73;;
7587;SDS011;3835;48.850;8.938;2022-12-07T15:33:17;17.53;;;15.80;;
7587;SDS011;3835;48.850;8.938;2022-12-07T15:35:45;15.77;;;14.47;;